createdAt,value
2019-05-12T00:00:15.205Z,88.50
2019-05-12T00:06:28.484Z,88.30
2019-05-12T00:12:40.953Z,88.60
2019-05-12T00:18:50.859Z,89.00
2019-05-12T00:25:00.250Z,88.80
2019-05-12T00:31:11.681Z,90.10
2019-05-12T00:37:13.822Z,90.00
2019-05-12T00:43:23.666Z,90.00
2019-05-12T00:49:24.421Z,90.10
2019-05-12T00:55:34.321Z,89.80
2019-05-12T01:01:31.950Z,88.40
2019-05-12T01:07:44.357Z,89.00
2019-05-12T01:13:55.428Z,89.40
2019-05-12T01:19:54.363Z,89.40
2019-05-12T01:26:05.584Z,89.70
2019-05-12T01:32:09.029Z,89.50
2019-05-12T01:41:19.934Z,88.30
2019-05-12T01:47:20.133Z,88.00
2019-05-12T01:53:18.143Z,87.90
2019-05-12T01:59:18.478Z,88.10
2019-05-12T02:05:08.737Z,88.60
2019-05-12T02:11:28.861Z,88.50
2019-05-12T02:17:24.431Z,88.20
2019-05-12T02:23:21.671Z,88.50
2019-05-12T02:29:18.630Z,88.50
2019-05-12T02:35:16.292Z,88.00
2019-05-12T02:41:15.429Z,88.60
2019-05-12T02:47:15.995Z,88.50
2019-05-12T02:53:14.537Z,89.10
2019-05-12T02:59:11.164Z,89.70
2019-05-12T03:05:08.477Z,88.70
2019-05-12T03:11:08.843Z,89.00
2019-05-12T03:17:06.428Z,88.20
2019-05-12T03:23:06.004Z,88.30
2019-05-12T03:29:05.771Z,88.50
2019-05-12T03:35:07.799Z,87.90
2019-05-12T03:41:01.371Z,87.90
2019-05-12T03:46:58.838Z,87.80
2019-05-12T03:52:56.770Z,87.30
2019-05-12T03:58:54.394Z,86.70
2019-05-12T04:04:55.574Z,86.30
2019-05-12T04:10:54.746Z,86.80
2019-05-12T04:16:54.282Z,85.50
2019-05-12T04:22:51.293Z,84.90
2019-05-12T04:28:48.611Z,85.10
2019-05-12T04:31:17.578Z,84.60
2019-05-12T04:33:46.284Z,84.70
2019-05-12T04:36:15.217Z,85.10
2019-05-12T04:38:45.002Z,83.50
2019-05-12T04:41:19.815Z,83.90
2019-05-12T04:43:47.135Z,83.80
2019-05-12T04:46:15.945Z,83.80
2019-05-12T04:48:45.435Z,84.50
2019-05-12T04:51:15.330Z,84.30
2019-05-12T04:53:46.535Z,83.70
2019-05-12T04:56:20.102Z,83.60
2019-05-12T04:58:45.683Z,83.60
2019-05-12T05:01:15.984Z,83.70
2019-05-12T05:03:44.901Z,83.80
2019-05-12T05:06:14.816Z,82.90
2019-05-12T05:08:44.372Z,81.60
2019-05-12T05:11:14.757Z,82.00
2019-05-12T05:13:44.516Z,82.40
2019-05-12T05:16:14.936Z,81.90
2019-05-12T05:18:44.000Z,81.30
2019-05-12T05:21:16.977Z,81.60
2019-05-12T05:23:45.718Z,80.40
2019-05-12T05:26:24.576Z,80.50
2019-05-12T05:28:44.853Z,80.60
2019-05-12T05:31:14.101Z,80.50
2019-05-12T05:33:43.430Z,81.10
2019-05-12T05:36:19.622Z,80.90
2019-05-12T05:38:45.492Z,80.80
2019-05-12T05:41:14.269Z,81.10
2019-05-12T05:43:43.806Z,80.60
2019-05-12T05:46:13.821Z,79.90
2019-05-12T05:48:46.477Z,80.20
2019-05-12T05:51:18.351Z,79.60
2019-05-12T05:53:50.158Z,79.50
2019-05-12T05:56:19.278Z,79.00
2019-05-12T05:58:51.909Z,77.50
2019-05-12T06:01:18.457Z,77.80
2019-05-12T06:03:48.506Z,78.30
2019-05-12T06:06:20.374Z,78.10
2019-05-12T06:09:03.747Z,78.50
2019-05-12T06:14:13.135Z,78.80
2019-05-12T06:16:45.450Z,79.50
2019-05-12T06:22:23.421Z,78.10
2019-05-12T06:25:41.118Z,78.40
2019-05-12T06:28:54.289Z,78.30
2019-05-12T06:31:19.083Z,78.10
2019-05-12T06:33:49.107Z,78.60
2019-05-12T06:36:21.976Z,78.10
2019-05-12T06:39:50.963Z,77.80
2019-05-12T06:42:25.635Z,78.00
2019-05-12T06:44:58.745Z,76.50
2019-05-12T06:47:27.459Z,76.10
2019-05-12T06:53:05.699Z,77.00
2019-05-12T06:55:39.049Z,76.80
2019-05-12T06:58:06.989Z,77.90
2019-05-12T07:00:35.701Z,76.80
2019-05-12T07:03:05.228Z,76.10
2019-05-12T07:05:38.318Z,76.50
2019-05-12T07:08:07.695Z,76.00
2019-05-12T07:10:43.046Z,76.40
2019-05-12T07:13:06.772Z,77.00
2019-05-12T07:15:40.017Z,76.60
2019-05-12T07:18:10.447Z,75.80
2019-05-12T07:20:40.390Z,75.30
2019-05-12T07:23:09.069Z,75.80
2019-05-12T07:25:44.487Z,75.10
2019-05-12T07:28:14.440Z,75.90
2019-05-12T07:30:44.123Z,73.30
2019-05-12T07:33:14.507Z,74.90
2019-05-12T07:35:44.584Z,73.00
2019-05-12T07:38:20.981Z,73.70
2019-05-12T07:40:46.024Z,72.60
2019-05-12T07:43:16.329Z,72.10
2019-05-12T07:45:46.165Z,72.10
2019-05-12T07:48:14.837Z,72.00
2019-05-12T07:50:43.522Z,71.20
2019-05-12T07:53:14.324Z,70.70
2019-05-12T07:55:47.539Z,72.20
2019-05-12T07:58:17.754Z,73.20
2019-05-12T08:00:44.312Z,72.90
2019-05-12T08:03:19.459Z,71.60
2019-05-12T08:05:43.942Z,70.80
2019-05-12T08:08:14.478Z,70.20
2019-05-12T08:10:44.361Z,69.80
2019-05-12T08:13:14.773Z,69.50
2019-05-12T08:15:45.766Z,70.10
2019-05-12T08:18:14.963Z,70.80
2019-05-12T08:20:43.724Z,71.60
2019-05-12T08:23:14.066Z,71.30
2019-05-12T08:25:43.637Z,71.70
2019-05-12T08:28:18.287Z,70.10
2019-05-12T08:30:47.328Z,70.40
2019-05-12T08:33:14.586Z,69.30
2019-05-12T08:35:44.014Z,69.80
2019-05-12T08:38:14.504Z,67.30
2019-05-12T08:40:46.410Z,67.20
2019-05-12T08:43:14.893Z,67.60
2019-05-12T08:45:44.320Z,67.40
2019-05-12T08:48:21.511Z,67.90
2019-05-12T08:50:46.222Z,68.00
2019-05-12T08:53:20.371Z,66.80
2019-05-12T08:55:44.462Z,65.90
2019-05-12T08:58:29.720Z,65.40
2019-05-12T09:00:50.293Z,66.60
2019-05-12T09:03:14.733Z,68.10
2019-05-12T09:05:44.598Z,67.20
2019-05-12T09:08:15.477Z,65.40
2019-05-12T09:10:45.173Z,64.30
2019-05-12T09:13:14.515Z,64.20
2019-05-12T09:15:43.744Z,64.00
2019-05-12T09:18:14.427Z,64.10
2019-05-12T09:20:48.895Z,63.30
2019-05-12T09:23:13.751Z,62.20
2019-05-12T09:25:45.351Z,62.00
2019-05-12T09:28:13.873Z,61.40
2019-05-12T09:30:47.544Z,62.50
2019-05-12T09:33:14.036Z,63.00
2019-05-12T09:35:43.782Z,63.80
2019-05-12T09:38:21.296Z,62.50
2019-05-12T09:40:43.723Z,62.90
2019-05-12T09:43:13.652Z,62.30
2019-05-12T09:45:52.030Z,62.20
2019-05-12T09:48:14.141Z,61.10
2019-05-12T09:50:46.310Z,61.20
2019-05-12T09:53:20.156Z,62.00
2019-05-12T09:55:48.890Z,60.70
2019-05-12T09:58:23.124Z,59.40
2019-05-12T10:00:47.874Z,60.70
2019-05-12T10:03:16.557Z,59.90
2019-05-12T10:05:45.234Z,61.40
2019-05-12T10:08:14.100Z,62.80
2019-05-12T10:10:46.833Z,61.40
2019-05-12T10:13:20.334Z,60.50
2019-05-12T10:15:46.270Z,59.30
2019-05-12T10:18:14.981Z,59.00
2019-05-12T10:20:44.112Z,59.30
2019-05-12T10:23:18.058Z,60.50
2019-05-12T10:25:44.544Z,60.20
2019-05-12T10:28:16.000Z,59.00
2019-05-12T10:30:47.094Z,58.10
2019-05-12T10:33:14.385Z,59.90
2019-05-12T10:35:43.906Z,58.30
2019-05-12T10:38:13.775Z,59.00
2019-05-12T10:40:44.526Z,57.70
2019-05-12T10:43:12.996Z,56.60
2019-05-12T10:45:44.043Z,56.40
2019-05-12T10:48:13.926Z,55.90
2019-05-12T10:50:44.672Z,56.10
2019-05-12T10:53:15.872Z,57.30
2019-05-12T10:55:44.131Z,55.10
2019-05-12T10:58:15.587Z,54.50
2019-05-12T11:00:45.508Z,55.00
2019-05-12T11:03:21.599Z,55.20
2019-05-12T11:06:02.344Z,55.60
2019-05-12T11:08:29.899Z,55.10
2019-05-12T11:11:00.954Z,56.10
2019-05-12T11:13:28.993Z,57.30
2019-05-12T11:15:57.709Z,56.60
2019-05-12T11:18:34.003Z,57.50
2019-05-12T11:20:56.788Z,58.70
2019-05-12T11:23:25.518Z,58.70
2019-05-12T11:25:54.782Z,58.50
2019-05-12T11:28:24.422Z,57.80
2019-05-12T11:30:53.415Z,58.10
2019-05-12T11:33:24.154Z,57.70
2019-05-12T11:35:54.089Z,58.30
2019-05-12T11:38:24.441Z,58.70
2019-05-12T11:40:54.377Z,59.00
2019-05-12T11:43:24.796Z,59.40
2019-05-12T11:45:53.828Z,59.50
2019-05-12T11:48:23.555Z,60.00
2019-05-12T11:50:54.561Z,60.20
2019-05-12T11:53:30.431Z,59.20
2019-05-12T12:26:37.082Z,60.50
2019-05-12T12:29:17.550Z,63.10
2019-05-12T12:35:34.412Z,60.30
2019-05-12T12:41:43.657Z,60.30
2019-05-12T12:47:47.090Z,62.40
2019-05-12T12:50:13.375Z,62.80
2019-05-12T12:52:44.790Z,62.10
2019-05-12T12:55:14.035Z,62.10
2019-05-12T12:57:46.562Z,62.70
2019-05-12T13:00:15.048Z,63.30
2019-05-12T13:02:45.217Z,63.10
2019-05-12T13:05:13.777Z,63.60
2019-05-12T13:07:43.946Z,63.60
2019-05-12T13:10:14.220Z,63.50
2019-05-12T13:12:43.718Z,63.10
2019-05-12T13:15:14.505Z,63.30
2019-05-12T13:17:44.817Z,62.50
2019-05-12T13:20:13.600Z,62.70
2019-05-12T13:22:44.274Z,62.40
2019-05-12T13:25:14.278Z,62.40
2019-05-12T13:27:42.982Z,62.40
2019-05-12T13:30:16.381Z,62.90
2019-05-12T13:32:44.131Z,63.30
2019-05-12T13:35:16.345Z,63.60
2019-05-12T13:37:43.383Z,64.10
2019-05-12T13:40:12.862Z,64.40
2019-05-12T13:42:43.616Z,64.60
2019-05-12T13:45:15.980Z,65.00
2019-05-12T13:47:43.968Z,64.20
2019-05-12T13:50:21.253Z,63.80
2019-05-12T13:52:43.100Z,64.00
2019-05-12T13:55:13.414Z,63.80
2019-05-12T13:57:52.307Z,63.90
2019-05-12T14:00:14.288Z,63.90
2019-05-12T14:02:44.181Z,63.80
2019-05-12T14:05:15.026Z,63.70
2019-05-12T14:07:43.874Z,63.80
2019-05-12T14:10:13.952Z,63.80
2019-05-12T14:12:43.970Z,63.50
2019-05-12T14:15:18.948Z,63.20
2019-05-12T14:17:47.682Z,63.10
2019-05-12T14:20:20.066Z,62.90
2019-05-12T14:22:46.777Z,62.60
2019-05-12T14:25:21.063Z,63.00
2019-05-12T14:38:34.962Z,63.40
2019-05-12T14:41:09.996Z,63.10
2019-05-12T14:43:34.199Z,62.90
2019-05-12T14:46:08.268Z,62.50
2019-05-12T14:48:40.252Z,62.40
2019-05-12T14:51:24.552Z,62.70
2019-05-12T14:53:56.701Z,62.00
2019-05-12T14:56:30.841Z,60.60
2019-05-12T14:59:00.826Z,60.30
2019-05-12T15:01:48.482Z,58.40
2019-05-12T15:04:00.246Z,57.40
2019-05-12T15:06:29.698Z,57.10
2019-05-12T15:08:59.454Z,56.80
2019-05-12T15:11:28.207Z,57.10
2019-05-12T15:13:56.968Z,57.70
2019-05-12T15:16:31.622Z,57.10
2019-05-12T15:19:20.819Z,56.80
2019-05-12T15:21:46.022Z,57.30
2019-05-12T15:24:18.778Z,56.80
2019-05-12T15:26:50.515Z,57.40
2019-05-12T15:29:20.467Z,56.80
2019-05-12T15:31:54.241Z,57.30
2019-05-12T15:34:39.655Z,57.20
2019-05-12T15:37:07.603Z,57.50
2019-05-12T15:39:39.602Z,57.50
2019-05-12T15:42:17.069Z,57.10
2019-05-12T15:44:47.493Z,57.50
2019-05-12T15:50:04.148Z,56.20
2019-05-12T15:52:46.563Z,56.10
2019-05-12T15:55:18.420Z,55.80
2019-05-12T15:57:47.531Z,56.50
2019-05-12T16:00:17.339Z,55.60
2019-05-12T16:02:47.054Z,55.30
2019-05-12T16:05:20.155Z,55.30
2019-05-12T16:07:51.142Z,55.70
2019-05-12T16:10:25.303Z,55.00
2019-05-12T16:13:02.379Z,55.00
2019-05-12T16:16:11.000Z,54.80
2019-05-12T16:18:48.855Z,54.80
2019-05-12T16:24:15.324Z,54.70
2019-05-12T16:26:51.840Z,54.10
2019-05-12T16:29:13.653Z,54.00
2019-05-12T16:31:47.879Z,53.40
2019-05-12T16:34:15.590Z,53.70
2019-05-12T16:36:51.967Z,54.10
2019-05-12T16:39:19.134Z,54.90
2019-05-12T16:42:00.019Z,55.50
2019-05-12T16:44:26.636Z,55.40
2019-05-12T16:46:59.885Z,56.40
2019-05-12T16:49:33.128Z,56.70
2019-05-12T16:52:03.798Z,57.70
2019-05-12T16:54:33.585Z,56.70
2019-05-12T16:57:06.527Z,57.20
2019-05-12T16:59:34.025Z,58.60
2019-05-12T17:02:23.462Z,58.40
2019-05-12T17:04:57.180Z,58.10
2019-05-12T17:08:17.720Z,58.80
2019-05-12T17:35:10.046Z,62.60
2019-05-12T19:03:57.856Z,70.30
2019-05-12T19:06:26.566Z,70.60
2019-05-12T19:08:55.297Z,71.00
2019-05-12T19:11:31.738Z,71.20
2019-05-12T19:14:07.488Z,69.90
2019-05-12T19:16:51.293Z,70.90
2019-05-12T19:19:20.252Z,70.40
2019-05-12T19:22:00.718Z,70.70
